sensor_id;sensor_type;location;lat;lon;timestamp;temperature;humidity
64997;SHT31;51545;51.568;6.998;2023-04-25T00:01:04;6.59;89.92
64997;SHT31;51545;51.568;6.998;2023-04-25T00:03:34;6.56;90.03
64997;SHT31;51545;51.568;6.998;2023-04-25T00:06:00;6.62;90.37
64997;SHT31;51545;51.568;6.998;2023-04-25T00:08:31;6.64;90.15
64997;SHT31;51545;51.568;6.998;2023-04-25T00:10:56;6.68;90.40
64997;SHT31;51545;51.568;6.998;2023-04-25T00:13:22;6.68;90.31
64997;SHT31;51545;51.568;6.998;2023-04-25T00:15:48;6.71;90.39
64997;SHT31;51545;51.568;6.998;2023-04-25T00:18:14;6.72;90.47
64997;SHT31;51545;51.568;6.998;2023-04-25T00:20:40;6.76;90.41
64997;SHT31;51545;51.568;6.998;2023-04-25T00:23:09;6.68;90.80
64997;SHT31;51545;51.568;6.998;2023-04-25T00:25:35;6.73;90.84
64997;SHT31;51545;51.568;6.998;2023-04-25T00:28:00;6.72;90.74
64997;SHT31;51545;51.568;6.998;2023-04-25T00:30:26;6.83;91.00
64997;SHT31;51545;51.568;6.998;2023-04-25T00:32:51;6.79;90.69
64997;SHT31;51545;51.568;6.998;2023-04-25T00:35:17;6.76;90.94
64997;SHT31;51545;51.568;6.998;2023-04-25T00:37:42;6.72;90.78
64997;SHT31;51545;51.568;6.998;2023-04-25T00:40:08;6.75;91.08
64997;SHT31;51545;51.568;6.998;2023-04-25T00:42:34;6.76;91.20
64997;SHT31;51545;51.568;6.998;2023-04-25T00:45:01;6.76;91.25
64997;SHT31;51545;51.568;6.998;2023-04-25T00:47:26;6.73;91.15
64997;SHT31;51545;51.568;6.998;2023-04-25T00:49:53;6.68;91.25
64997;SHT31;51545;51.568;6.998;2023-04-25T00:52:19;6.68;91.43
64997;SHT31;51545;51.568;6.998;2023-04-25T00:54:45;6.71;91.46
64997;SHT31;51545;51.568;6.998;2023-04-25T00:57:11;6.68;91.47
64997;SHT31;51545;51.568;6.998;2023-04-25T00:59:37;6.69;91.73
64997;SHT31;51545;51.568;6.998;2023-04-25T01:02:03;6.67;91.84
64997;SHT31;51545;51.568;6.998;2023-04-25T01:04:30;6.69;91.78
64997;SHT31;51545;51.568;6.998;2023-04-25T01:06:55;6.59;92.04
64997;SHT31;51545;51.568;6.998;2023-04-25T01:09:20;6.62;92.26
64997;SHT31;51545;51.568;6.998;2023-04-25T01:11:47;6.65;92.04
64997;SHT31;51545;51.568;6.998;2023-04-25T01:14:13;6.54;91.88
64997;SHT31;51545;51.568;6.998;2023-04-25T01:16:39;6.55;92.01
64997;SHT31;51545;51.568;6.998;2023-04-25T01:19:07;6.49;91.99
64997;SHT31;51545;51.568;6.998;2023-04-25T01:21:36;6.55;92.10
64997;SHT31;51545;51.568;6.998;2023-04-25T01:24:01;6.55;92.22
64997;SHT31;51545;51.568;6.998;2023-04-25T01:26:27;6.52;92.40
64997;SHT31;51545;51.568;6.998;2023-04-25T01:28:53;6.51;92.72
64997;SHT31;51545;51.568;6.998;2023-04-25T01:31:19;6.45;93.05
64997;SHT31;51545;51.568;6.998;2023-04-25T01:33:45;6.33;92.95
64997;SHT31;51545;51.568;6.998;2023-04-25T01:36:10;6.37;93.27
64997;SHT31;51545;51.568;6.998;2023-04-25T01:38:36;6.38;93.19
64997;SHT31;51545;51.568;6.998;2023-04-25T01:41:02;6.34;93.19
64997;SHT31;51545;51.568;6.998;2023-04-25T01:43:27;6.37;93.22
64997;SHT31;51545;51.568;6.998;2023-04-25T01:45:53;6.30;93.31
64997;SHT31;51545;51.568;6.998;2023-04-25T01:48:19;6.27;93.49
64997;SHT31;51545;51.568;6.998;2023-04-25T01:50:45;6.28;93.60
64997;SHT31;51545;51.568;6.998;2023-04-25T01:53:11;6.34;93.60
64997;SHT31;51545;51.568;6.998;2023-04-25T01:55:38;6.37;93.47
64997;SHT31;51545;51.568;6.998;2023-04-25T01:58:03;6.31;93.32
64997;SHT31;51545;51.568;6.998;2023-04-25T02:00:34;6.34;93.31
64997;SHT31;51545;51.568;6.998;2023-04-25T02:03:00;6.34;93.29
64997;SHT31;51545;51.568;6.998;2023-04-25T02:05:26;6.41;93.41
64997;SHT31;51545;51.568;6.998;2023-04-25T02:07:51;6.41;93.38
64997;SHT31;51545;51.568;6.998;2023-04-25T02:10:16;6.40;93.42
64997;SHT31;51545;51.568;6.998;2023-04-25T02:12:42;6.41;93.51
64997;SHT31;51545;51.568;6.998;2023-04-25T02:15:07;6.48;93.38
64997;SHT31;51545;51.568;6.998;2023-04-25T02:17:33;6.48;93.42
64997;SHT31;51545;51.568;6.998;2023-04-25T02:19:59;6.52;93.51
64997;SHT31;51545;51.568;6.998;2023-04-25T02:22:24;6.52;93.59
64997;SHT31;51545;51.568;6.998;2023-04-25T02:24:50;6.46;93.67
64997;SHT31;51545;51.568;6.998;2023-04-25T02:27:15;6.48;94.06
64997;SHT31;51545;51.568;6.998;2023-04-25T02:29:41;6.49;94.16
64997;SHT31;51545;51.568;6.998;2023-04-25T02:32:06;6.49;94.15
64997;SHT31;51545;51.568;6.998;2023-04-25T02:34:32;6.52;94.28
64997;SHT31;51545;51.568;6.998;2023-04-25T02:36:57;6.48;94.41
64997;SHT31;51545;51.568;6.998;2023-04-25T02:39:22;6.46;94.32
64997;SHT31;51545;51.568;6.998;2023-04-25T02:41:50;6.41;94.33
64997;SHT31;51545;51.568;6.998;2023-04-25T02:44:17;6.42;94.13
64997;SHT31;51545;51.568;6.998;2023-04-25T02:46:42;6.51;94.23
64997;SHT31;51545;51.568;6.998;2023-04-25T02:49:08;6.46;94.11
64997;SHT31;51545;51.568;6.998;2023-04-25T02:51:33;6.46;94.08
64997;SHT31;51545;51.568;6.998;2023-04-25T02:53:59;6.48;94.03
64997;SHT31;51545;51.568;6.998;2023-04-25T02:56:24;6.45;94.21
64997;SHT31;51545;51.568;6.998;2023-04-25T02:58:51;6.44;94.29
64997;SHT31;51545;51.568;6.998;2023-04-25T03:01:16;6.42;94.40
64997;SHT31;51545;51.568;6.998;2023-04-25T03:03:42;6.49;94.43
64997;SHT31;51545;51.568;6.998;2023-04-25T03:06:07;6.48;94.44
64997;SHT31;51545;51.568;6.998;2023-04-25T03:08:33;6.44;94.50
64997;SHT31;51545;51.568;6.998;2023-04-25T03:10:59;6.38;94.64
64997;SHT31;51545;51.568;6.998;2023-04-25T03:13:25;6.40;94.76
64997;SHT31;51545;51.568;6.998;2023-04-25T03:15:50;6.40;94.96
64997;SHT31;51545;51.568;6.998;2023-04-25T03:18:16;6.34;94.93
64997;SHT31;51545;51.568;6.998;2023-04-25T03:20:41;6.34;95.11
64997;SHT31;51545;51.568;6.998;2023-04-25T03:23:07;6.41;95.26
64997;SHT31;51545;51.568;6.998;2023-04-25T03:25:33;6.37;95.12
64997;SHT31;51545;51.568;6.998;2023-04-25T03:27:58;6.37;95.17
64997;SHT31;51545;51.568;6.998;2023-04-25T03:30:24;6.35;94.92
64997;SHT31;51545;51.568;6.998;2023-04-25T03:32:49;6.34;94.81
64997;SHT31;51545;51.568;6.998;2023-04-25T03:35:15;6.40;94.91
64997;SHT31;51545;51.568;6.998;2023-04-25T03:37:40;6.41;94.89
64997;SHT31;51545;51.568;6.998;2023-04-25T03:40:06;6.44;94.67
64997;SHT31;51545;51.568;6.998;2023-04-25T03:42:32;6.45;94.67
64997;SHT31;51545;51.568;6.998;2023-04-25T03:44:57;6.52;94.53
64997;SHT31;51545;51.568;6.998;2023-04-25T03:47:23;6.52;93.42
64997;SHT31;51545;51.568;6.998;2023-04-25T03:49:48;6.34;91.66
64997;SHT31;51545;51.568;6.998;2023-04-25T03:52:16;6.11;89.76
64997;SHT31;51545;51.568;6.998;2023-04-25T03:54:42;6.10;89.72
64997;SHT31;51545;51.568;6.998;2023-04-25T03:57:07;6.00;90.79
64997;SHT31;51545;51.568;6.998;2023-04-25T03:59:33;5.90;91.32
64997;SHT31;51545;51.568;6.998;2023-04-25T04:01:58;5.95;91.71
64997;SHT31;51545;51.568;6.998;2023-04-25T04:04:24;5.82;92.22
64997;SHT31;51545;51.568;6.998;2023-04-25T04:06:49;5.74;92.19
64997;SHT31;51545;51.568;6.998;2023-04-25T04:09:15;5.60;92.95
64997;SHT31;51545;51.568;6.998;2023-04-25T04:11:41;5.58;93.84
64997;SHT31;51545;51.568;6.998;2023-04-25T04:14:07;5.50;93.99
64997;SHT31;51545;51.568;6.998;2023-04-25T04:16:33;5.45;93.84
64997;SHT31;51545;51.568;6.998;2023-04-25T04:18:58;5.47;94.41
64997;SHT31;51545;51.568;6.998;2023-04-25T04:21:24;5.38;94.12
64997;SHT31;51545;51.568;6.998;2023-04-25T04:23:49;5.43;94.45
64997;SHT31;51545;51.568;6.998;2023-04-25T04:26:15;5.50;94.77
64997;SHT31;51545;51.568;6.998;2023-04-25T04:28:41;5.45;94.54
64997;SHT31;51545;51.568;6.998;2023-04-25T04:31:09;5.47;94.61
64997;SHT31;51545;51.568;6.998;2023-04-25T04:33:35;5.48;94.47
64997;SHT31;51545;51.568;6.998;2023-04-25T04:36:01;5.52;94.84
64997;SHT31;51545;51.568;6.998;2023-04-25T04:38:28;5.54;94.89
64997;SHT31;51545;51.568;6.998;2023-04-25T04:40:54;5.51;95.02
64997;SHT31;51545;51.568;6.998;2023-04-25T04:43:20;5.58;95.42
64997;SHT31;51545;51.568;6.998;2023-04-25T04:45:47;5.65;95.61
64997;SHT31;51545;51.568;6.998;2023-04-25T04:48:14;5.65;95.79
64997;SHT31;51545;51.568;6.998;2023-04-25T04:50:40;5.64;96.06
64997;SHT31;51545;51.568;6.998;2023-04-25T04:53:06;5.68;96.32
64997;SHT31;51545;51.568;6.998;2023-04-25T04:55:32;5.71;96.60
64997;SHT31;51545;51.568;6.998;2023-04-25T04:57:57;5.75;96.78
64997;SHT31;51545;51.568;6.998;2023-04-25T05:00:23;5.85;96.85
64997;SHT31;51545;51.568;6.998;2023-04-25T05:02:48;5.88;97.20
64997;SHT31;51545;51.568;6.998;2023-04-25T05:05:14;5.92;97.00
64997;SHT31;51545;51.568;6.998;2023-04-25T05:07:39;5.99;96.93
64997;SHT31;51545;51.568;6.998;2023-04-25T05:10:05;6.10;96.74
64997;SHT31;51545;51.568;6.998;2023-04-25T05:12:31;6.10;96.45
64997;SHT31;51545;51.568;6.998;2023-04-25T05:14:56;6.00;96.39
64997;SHT31;51545;51.568;6.998;2023-04-25T05:17:22;6.05;96.51
64997;SHT31;51545;51.568;6.998;2023-04-25T05:19:47;6.00;96.57
64997;SHT31;51545;51.568;6.998;2023-04-25T05:22:13;6.05;96.83
64997;SHT31;51545;51.568;6.998;2023-04-25T05:24:38;6.18;96.91
64997;SHT31;51545;51.568;6.998;2023-04-25T05:27:04;6.11;96.35
64997;SHT31;51545;51.568;6.998;2023-04-25T05:29:30;6.16;96.30
64997;SHT31;51545;51.568;6.998;2023-04-25T05:31:56;6.21;96.32
64997;SHT31;51545;51.568;6.998;2023-04-25T05:34:21;6.20;95.79
64997;SHT31;51545;51.568;6.998;2023-04-25T05:36:47;6.31;95.95
64997;SHT31;51545;51.568;6.998;2023-04-25T05:39:14;6.16;95.89
64997;SHT31;51545;51.568;6.998;2023-04-25T05:41:42;6.24;96.02
64997;SHT31;51545;51.568;6.998;2023-04-25T05:44:08;6.27;95.39
64997;SHT31;51545;51.568;6.998;2023-04-25T05:46:34;6.42;95.24
64997;SHT31;51545;51.568;6.998;2023-04-25T05:48:59;6.40;95.03
64997;SHT31;51545;51.568;6.998;2023-04-25T05:51:25;6.46;94.89
64997;SHT31;51545;51.568;6.998;2023-04-25T05:53:51;6.40;94.29
64997;SHT31;51545;51.568;6.998;2023-04-25T05:56:16;6.35;93.62
64997;SHT31;51545;51.568;6.998;2023-04-25T05:58:41;6.24;94.27
64997;SHT31;51545;51.568;6.998;2023-04-25T06:01:07;6.34;94.20
64997;SHT31;51545;51.568;6.998;2023-04-25T06:03:33;6.34;94.46
64997;SHT31;51545;51.568;6.998;2023-04-25T06:05:59;6.34;94.38
64997;SHT31;51545;51.568;6.998;2023-04-25T06:08:25;6.46;94.11
64997;SHT31;51545;51.568;6.998;2023-04-25T06:10:50;6.42;93.50
64997;SHT31;51545;51.568;6.998;2023-04-25T06:13:15;6.61;93.17
64997;SHT31;51545;51.568;6.998;2023-04-25T06:15:41;6.67;92.62
64997;SHT31;51545;51.568;6.998;2023-04-25T06:18:07;6.82;93.10
64997;SHT31;51545;51.568;6.998;2023-04-25T06:20:33;6.73;92.29
64997;SHT31;51545;51.568;6.998;2023-04-25T06:22:58;6.67;92.54
64997;SHT31;51545;51.568;6.998;2023-04-25T06:25:24;6.80;91.71
64997;SHT31;51545;51.568;6.998;2023-04-25T06:27:49;6.88;90.70
64997;SHT31;51545;51.568;6.998;2023-04-25T06:30:14;6.86;90.40
64997;SHT31;51545;51.568;6.998;2023-04-25T06:32:41;6.64;90.69
64997;SHT31;51545;51.568;6.998;2023-04-25T06:35:06;6.68;90.60
64997;SHT31;51545;51.568;6.998;2023-04-25T06:37:32;6.52;90.25
64997;SHT31;51545;51.568;6.998;2023-04-25T06:39:58;6.34;90.73
64997;SHT31;51545;51.568;6.998;2023-04-25T06:42:23;6.28;89.24
64997;SHT31;51545;51.568;6.998;2023-04-25T06:44:49;6.13;86.48
64997;SHT31;51545;51.568;6.998;2023-04-25T06:47:14;6.24;87.31
64997;SHT31;51545;51.568;6.998;2023-04-25T06:49:40;6.40;88.01
64997;SHT31;51545;51.568;6.998;2023-04-25T06:52:05;6.48;87.64
64997;SHT31;51545;51.568;6.998;2023-04-25T06:54:30;6.55;87.65
64997;SHT31;51545;51.568;6.998;2023-04-25T06:56:56;6.80;87.36
64997;SHT31;51545;51.568;6.998;2023-04-25T06:59:22;6.80;85.59
64997;SHT31;51545;51.568;6.998;2023-04-25T07:01:47;6.89;85.12
64997;SHT31;51545;51.568;6.998;2023-04-25T07:04:13;7.13;85.40
64997;SHT31;51545;51.568;6.998;2023-04-25T07:06:38;7.35;85.06
64997;SHT31;51545;51.568;6.998;2023-04-25T07:09:07;7.55;84.08
64997;SHT31;51545;51.568;6.998;2023-04-25T07:11:34;7.66;84.65
64997;SHT31;51545;51.568;6.998;2023-04-25T07:14:00;7.45;83.89
64997;SHT31;51545;51.568;6.998;2023-04-25T07:16:26;7.66;83.70
64997;SHT31;51545;51.568;6.998;2023-04-25T07:18:51;7.70;83.12
64997;SHT31;51545;51.568;6.998;2023-04-25T07:21:17;7.72;82.39
64997;SHT31;51545;51.568;6.998;2023-04-25T07:23:42;7.80;82.18
64997;SHT31;51545;51.568;6.998;2023-04-25T07:26:07;7.73;84.17
64997;SHT31;51545;51.568;6.998;2023-04-25T07:28:33;7.51;84.26
64997;SHT31;51545;51.568;6.998;2023-04-25T07:30:58;7.79;86.03
64997;SHT31;51545;51.568;6.998;2023-04-25T07:33:24;8.01;85.03
64997;SHT31;51545;51.568;6.998;2023-04-25T07:35:49;7.93;83.58
64997;SHT31;51545;51.568;6.998;2023-04-25T07:38:15;7.87;83.95
64997;SHT31;51545;51.568;6.998;2023-04-25T07:40:40;7.87;81.92
64997;SHT31;51545;51.568;6.998;2023-04-25T07:43:06;7.61;83.59
64997;SHT31;51545;51.568;6.998;2023-04-25T07:45:31;7.61;83.94
64997;SHT31;51545;51.568;6.998;2023-04-25T07:47:57;7.73;84.59
64997;SHT31;51545;51.568;6.998;2023-04-25T07:50:22;8.00;83.00
64997;SHT31;51545;51.568;6.998;2023-04-25T07:52:48;8.06;81.65
64997;SHT31;51545;51.568;6.998;2023-04-25T07:55:13;8.06;80.85
64997;SHT31;51545;51.568;6.998;2023-04-25T07:57:39;8.35;81.39
64997;SHT31;51545;51.568;6.998;2023-04-25T08:00:05;8.69;80.09
64997;SHT31;51545;51.568;6.998;2023-04-25T08:02:34;8.84;78.41
64997;SHT31;51545;51.568;6.998;2023-04-25T08:05:00;8.93;76.64
64997;SHT31;51545;51.568;6.998;2023-04-25T08:07:25;8.72;78.65
64997;SHT31;51545;51.568;6.998;2023-04-25T08:09:51;8.79;79.44
64997;SHT31;51545;51.568;6.998;2023-04-25T08:12:17;8.67;77.43
64997;SHT31;51545;51.568;6.998;2023-04-25T08:14:43;8.67;77.01
64997;SHT31;51545;51.568;6.998;2023-04-25T08:17:09;8.13;78.70
64997;SHT31;51545;51.568;6.998;2023-04-25T08:19:34;8.44;79.15
64997;SHT31;51545;51.568;6.998;2023-04-25T08:22:00;8.74;78.11
64997;SHT31;51545;51.568;6.998;2023-04-25T08:24:26;8.93;76.01
64997;SHT31;51545;51.568;6.998;2023-04-25T08:26:51;8.99;75.47
64997;SHT31;51545;51.568;6.998;2023-04-25T08:29:17;9.03;76.40
64997;SHT31;51545;51.568;6.998;2023-04-25T08:31:42;8.99;74.54
64997;SHT31;51545;51.568;6.998;2023-04-25T08:34:08;9.29;74.72
64997;SHT31;51545;51.568;6.998;2023-04-25T08:36:33;9.55;74.49
64997;SHT31;51545;51.568;6.998;2023-04-25T08:38:59;9.65;73.51
64997;SHT31;51545;51.568;6.998;2023-04-25T08:41:24;9.34;75.02
64997;SHT31;51545;51.568;6.998;2023-04-25T08:43:51;9.83;73.60
64997;SHT31;51545;51.568;6.998;2023-04-25T08:46:18;10.28;71.79
64997;SHT31;51545;51.568;6.998;2023-04-25T08:48:44;10.20;70.49
64997;SHT31;51545;51.568;6.998;2023-04-25T08:51:12;9.93;71.65
64997;SHT31;51545;51.568;6.998;2023-04-25T08:53:48;10.04;71.80
64997;SHT31;51545;51.568;6.998;2023-04-25T08:56:16;10.17;70.52
64997;SHT31;51545;51.568;6.998;2023-04-25T08:58:50;10.20;69.37
64997;SHT31;51545;51.568;6.998;2023-04-25T09:01:15;10.20;69.37
64997;SHT31;51545;51.568;6.998;2023-04-25T09:03:41;10.33;69.22
64997;SHT31;51545;51.568;6.998;2023-04-25T09:06:09;10.50;68.19
64997;SHT31;51545;51.568;6.998;2023-04-25T09:08:37;10.12;69.07
64997;SHT31;51545;51.568;6.998;2023-04-25T09:11:05;10.42;69.45
64997;SHT31;51545;51.568;6.998;2023-04-25T09:13:32;10.55;67.67
64997;SHT31;51545;51.568;6.998;2023-04-25T09:15:58;10.50;67.53
64997;SHT31;51545;51.568;6.998;2023-04-25T09:20:54;10.11;68.73
64997;SHT31;51545;51.568;6.998;2023-04-25T09:23:21;10.26;66.56
64997;SHT31;51545;51.568;6.998;2023-04-25T09:25:48;10.05;67.04
64997;SHT31;51545;51.568;6.998;2023-04-25T09:28:25;10.10;66.87
64997;SHT31;51545;51.568;6.998;2023-04-25T09:30:55;10.21;66.28
64997;SHT31;51545;51.568;6.998;2023-04-25T09:33:27;10.28;64.91
64997;SHT31;51545;51.568;6.998;2023-04-25T09:35:56;10.81;65.88
64997;SHT31;51545;51.568;6.998;2023-04-25T09:38:27;10.66;64.81
64997;SHT31;51545;51.568;6.998;2023-04-25T09:40:55;11.28;63.70
64997;SHT31;51545;51.568;6.998;2023-04-25T09:43:21;11.01;59.70
64997;SHT31;51545;51.568;6.998;2023-04-25T09:45:48;11.29;59.78
64997;SHT31;51545;51.568;6.998;2023-04-25T09:48:19;11.52;61.27
64997;SHT31;51545;51.568;6.998;2023-04-25T09:53:38;11.36;58.18
64997;SHT31;51545;51.568;6.998;2023-04-25T09:56:09;11.42;58.82
64997;SHT31;51545;51.568;6.998;2023-04-25T09:58:36;11.08;57.74
64997;SHT31;51545;51.568;6.998;2023-04-25T10:01:04;10.18;60.83
64997;SHT31;51545;51.568;6.998;2023-04-25T10:03:33;9.93;62.06
64997;SHT31;51545;51.568;6.998;2023-04-25T10:06:00;10.14;62.93
64997;SHT31;51545;51.568;6.998;2023-04-25T10:08:33;9.98;63.35
64997;SHT31;51545;51.568;6.998;2023-04-25T10:11:04;10.03;63.75
64997;SHT31;51545;51.568;6.998;2023-04-25T10:13:31;9.83;63.86
64997;SHT31;51545;51.568;6.998;2023-04-25T10:15:58;10.05;65.23
64997;SHT31;51545;51.568;6.998;2023-04-25T10:18:25;10.31;64.05
64997;SHT31;51545;51.568;6.998;2023-04-25T10:21:00;10.17;64.42
64997;SHT31;51545;51.568;6.998;2023-04-25T10:23:26;9.87;63.24
64997;SHT31;51545;51.568;6.998;2023-04-25T10:25:54;9.83;61.22
64997;SHT31;51545;51.568;6.998;2023-04-25T10:28:20;9.29;64.25
64997;SHT31;51545;51.568;6.998;2023-04-25T10:36:13;8.70;72.06
64997;SHT31;51545;51.568;6.998;2023-04-25T10:38:48;8.89;73.87
64997;SHT31;51545;51.568;6.998;2023-04-25T10:41:20;8.80;74.41
64997;SHT31;51545;51.568;6.998;2023-04-25T10:43:48;8.66;76.72
64997;SHT31;51545;51.568;6.998;2023-04-25T10:46:25;8.53;77.59
64997;SHT31;51545;51.568;6.998;2023-04-25T10:48:53;8.39;77.51
64997;SHT31;51545;51.568;6.998;2023-04-25T10:51:25;8.44;76.57
64997;SHT31;51545;51.568;6.998;2023-04-25T10:56:21;8.74;75.82
64997;SHT31;51545;51.568;6.998;2023-04-25T10:59:04;8.87;75.50
64997;SHT31;51545;51.568;6.998;2023-04-25T11:01:36;9.03;75.40
64997;SHT31;51545;51.568;6.998;2023-04-25T11:04:03;9.24;73.69
64997;SHT31;51545;51.568;6.998;2023-04-25T11:09:11;9.36;70.01
64997;SHT31;51545;51.568;6.998;2023-04-25T11:11:40;9.80;69.52
64997;SHT31;51545;51.568;6.998;2023-04-25T11:14:06;10.10;69.69
64997;SHT31;51545;51.568;6.998;2023-04-25T11:16:32;10.45;66.98
64997;SHT31;51545;51.568;6.998;2023-04-25T11:18:57;10.56;65.14
64997;SHT31;51545;51.568;6.998;2023-04-25T11:21:24;10.80;64.20
64997;SHT31;51545;51.568;6.998;2023-04-25T11:23:51;11.88;64.03
64997;SHT31;51545;51.568;6.998;2023-04-25T11:26:18;12.43;60.18
64997;SHT31;51545;51.568;6.998;2023-04-25T11:28:45;13.74;58.46
64997;SHT31;51545;51.568;6.998;2023-04-25T11:31:10;14.15;54.31
64997;SHT31;51545;51.568;6.998;2023-04-25T11:33:35;15.39;50.35
64997;SHT31;51545;51.568;6.998;2023-04-25T11:36:01;14.89;52.26
64997;SHT31;51545;51.568;6.998;2023-04-25T11:38:26;15.66;48.90
64997;SHT31;51545;51.568;6.998;2023-04-25T11:40:52;15.91;47.43
64997;SHT31;51545;51.568;6.998;2023-04-25T11:43:20;16.01;48.49
64997;SHT31;51545;51.568;6.998;2023-04-25T11:45:47;15.23;47.76
64997;SHT31;51545;51.568;6.998;2023-04-25T11:48:13;14.39;50.43
64997;SHT31;51545;51.568;6.998;2023-04-25T11:50:39;15.82;48.37
64997;SHT31;51545;51.568;6.998;2023-04-25T11:53:05;16.95;46.26
64997;SHT31;51545;51.568;6.998;2023-04-25T11:55:31;17.80;43.90
64997;SHT31;51545;51.568;6.998;2023-04-25T11:57:59;16.12;43.73
64997;SHT31;51545;51.568;6.998;2023-04-25T12:00:25;14.56;50.24
64997;SHT31;51545;51.568;6.998;2023-04-25T12:02:55;13.50;47.91
64997;SHT31;51545;51.568;6.998;2023-04-25T12:05:27;13.44;50.67
64997;SHT31;51545;51.568;6.998;2023-04-25T12:07:54;14.23;49.05
64997;SHT31;51545;51.568;6.998;2023-04-25T12:10:20;13.15;49.74
64997;SHT31;51545;51.568;6.998;2023-04-25T12:12:46;12.59;52.12
64997;SHT31;51545;51.568;6.998;2023-04-25T12:15:14;11.86;54.51
64997;SHT31;51545;51.568;6.998;2023-04-25T12:17:41;11.95;55.07
64997;SHT31;51545;51.568;6.998;2023-04-25T12:20:12;11.55;58.72
64997;SHT31;51545;51.568;6.998;2023-04-25T12:22:43;11.65;57.34
64997;SHT31;51545;51.568;6.998;2023-04-25T12:25:13;11.34;59.79
64997;SHT31;51545;51.568;6.998;2023-04-25T12:28:17;11.10;59.04
64997;SHT31;51545;51.568;6.998;2023-04-25T12:31:00;9.80;63.42
64997;SHT31;51545;51.568;6.998;2023-04-25T12:33:34;10.17;66.45
64997;SHT31;51545;51.568;6.998;2023-04-25T12:36:04;10.33;64.31
64997;SHT31;51545;51.568;6.998;2023-04-25T12:38:38;9.82;65.90
64997;SHT31;51545;51.568;6.998;2023-04-25T12:41:05;10.22;65.29
64997;SHT31;51545;51.568;6.998;2023-04-25T12:43:31;9.69;64.95
64997;SHT31;51545;51.568;6.998;2023-04-25T12:45:57;10.21;66.77
64997;SHT31;51545;51.568;6.998;2023-04-25T12:48:23;10.21;65.22
64997;SHT31;51545;51.568;6.998;2023-04-25T12:50:49;10.43;65.13
64997;SHT31;51545;51.568;6.998;2023-04-25T12:53:19;10.93;64.59
64997;SHT31;51545;51.568;6.998;2023-04-25T12:55:45;10.38;61.05
64997;SHT31;51545;51.568;6.998;2023-04-25T12:58:12;10.25;64.55
64997;SHT31;51545;51.568;6.998;2023-04-25T13:00:41;10.45;62.64
64997;SHT31;51545;51.568;6.998;2023-04-25T13:03:07;10.00;64.22
64997;SHT31;51545;51.568;6.998;2023-04-25T13:05:34;9.86;65.75
64997;SHT31;51545;51.568;6.998;2023-04-25T13:07:59;9.90;66.01
64997;SHT31;51545;51.568;6.998;2023-04-25T13:10:25;9.91;66.10
64997;SHT31;51545;51.568;6.998;2023-04-25T13:12:50;10.03;67.01
64997;SHT31;51545;51.568;6.998;2023-04-25T13:15:16;10.25;65.26
64997;SHT31;51545;51.568;6.998;2023-04-25T13:17:42;10.32;66.39
64997;SHT31;51545;51.568;6.998;2023-04-25T13:20:07;10.38;64.97
64997;SHT31;51545;51.568;6.998;2023-04-25T13:22:38;10.31;65.58
64997;SHT31;51545;51.568;6.998;2023-04-25T13:25:04;10.66;65.12
64997;SHT31;51545;51.568;6.998;2023-04-25T13:27:31;10.40;66.13
64997;SHT31;51545;51.568;6.998;2023-04-25T13:30:01;11.48;61.53
64997;SHT31;51545;51.568;6.998;2023-04-25T13:32:32;12.66;61.96
64997;SHT31;51545;51.568;6.998;2023-04-25T13:34:59;14.25;55.47
64997;SHT31;51545;51.568;6.998;2023-04-25T13:37:24;13.81;55.58
64997;SHT31;51545;51.568;6.998;2023-04-25T13:39:50;14.15;54.94
64997;SHT31;51545;51.568;6.998;2023-04-25T13:42:16;15.20;53.73
64997;SHT31;51545;51.568;6.998;2023-04-25T13:44:41;16.35;49.58
64997;SHT31;51545;51.568;6.998;2023-04-25T13:47:06;18.06;45.17
64997;SHT31;51545;51.568;6.998;2023-04-25T13:49:32;16.21;46.06
64997;SHT31;51545;51.568;6.998;2023-04-25T13:51:57;17.36;45.74
64997;SHT31;51545;51.568;6.998;2023-04-25T13:54:23;17.66;42.21
64997;SHT31;51545;51.568;6.998;2023-04-25T13:56:48;16.94;41.73
64997;SHT31;51545;51.568;6.998;2023-04-25T13:59:14;15.69;42.88
64997;SHT31;51545;51.568;6.998;2023-04-25T14:01:39;15.38;44.35
64997;SHT31;51545;51.568;6.998;2023-04-25T14:04:05;18.13;40.75
64997;SHT31;51545;51.568;6.998;2023-04-25T14:06:31;17.95;39.65
64997;SHT31;51545;51.568;6.998;2023-04-25T14:08:57;17.98;40.33
64997;SHT31;51545;51.568;6.998;2023-04-25T14:11:22;18.42;40.05
64997;SHT31;51545;51.568;6.998;2023-04-25T14:13:48;18.57;39.81
64997;SHT31;51545;51.568;6.998;2023-04-25T14:16:14;16.65;39.90
64997;SHT31;51545;51.568;6.998;2023-04-25T14:18:40;16.43;41.42
64997;SHT31;51545;51.568;6.998;2023-04-25T14:21:06;16.70;41.22
64997;SHT31;51545;51.568;6.998;2023-04-25T14:23:31;17.32;42.41
64997;SHT31;51545;51.568;6.998;2023-04-25T14:25:57;16.06;43.46
64997;SHT31;51545;51.568;6.998;2023-04-25T14:28:22;14.57;45.32
64997;SHT31;51545;51.568;6.998;2023-04-25T14:30:48;14.11;46.69
64997;SHT31;51545;51.568;6.998;2023-04-25T14:33:13;13.69;47.70
64997;SHT31;51545;51.568;6.998;2023-04-25T14:35:39;13.83;48.57
64997;SHT31;51545;51.568;6.998;2023-04-25T14:38:05;13.12;52.85
64997;SHT31;51545;51.568;6.998;2023-04-25T14:40:30;12.50;57.38
64997;SHT31;51545;51.568;6.998;2023-04-25T14:42:56;12.12;58.13
64997;SHT31;51545;51.568;6.998;2023-04-25T14:45:21;11.97;58.86
64997;SHT31;51545;51.568;6.998;2023-04-25T14:47:46;11.98;59.66
64997;SHT31;51545;51.568;6.998;2023-04-25T14:50:12;12.42;59.17
64997;SHT31;51545;51.568;6.998;2023-04-25T14:52:37;12.66;58.08
64997;SHT31;51545;51.568;6.998;2023-04-25T14:55:03;13.46;56.85
64997;SHT31;51545;51.568;6.998;2023-04-25T14:57:33;14.42;54.83
64997;SHT31;51545;51.568;6.998;2023-04-25T14:59:59;15.40;51.06
64997;SHT31;51545;51.568;6.998;2023-04-25T15:02:25;15.67;50.70
64997;SHT31;51545;51.568;6.998;2023-04-25T15:04:51;16.98;49.10
64997;SHT31;51545;51.568;6.998;2023-04-25T15:07:17;17.51;44.21
64997;SHT31;51545;51.568;6.998;2023-04-25T15:09:43;16.54;46.12
64997;SHT31;51545;51.568;6.998;2023-04-25T15:12:08;14.83;49.60
64997;SHT31;51545;51.568;6.998;2023-04-25T15:14:34;14.08;49.80
64997;SHT31;51545;51.568;6.998;2023-04-25T15:17:00;14.00;50.28
64997;SHT31;51545;51.568;6.998;2023-04-25T15:19:25;15.53;47.05
64997;SHT31;51545;51.568;6.998;2023-04-25T15:21:51;16.08;46.12
64997;SHT31;51545;51.568;6.998;2023-04-25T15:24:17;15.29;48.13
64997;SHT31;51545;51.568;6.998;2023-04-25T15:26:43;15.59;48.03
64997;SHT31;51545;51.568;6.998;2023-04-25T15:29:09;16.78;44.73
64997;SHT31;51545;51.568;6.998;2023-04-25T15:31:34;17.58;44.89
64997;SHT31;51545;51.568;6.998;2023-04-25T15:34:00;17.95;42.89
64997;SHT31;51545;51.568;6.998;2023-04-25T15:36:26;15.84;46.96
64997;SHT31;51545;51.568;6.998;2023-04-25T15:38:51;17.78;43.61
64997;SHT31;51545;51.568;6.998;2023-04-25T15:41:17;17.92;44.09
64997;SHT31;51545;51.568;6.998;2023-04-25T15:43:43;16.74;45.80
64997;SHT31;51545;51.568;6.998;2023-04-25T15:46:08;16.18;45.63
64997;SHT31;51545;51.568;6.998;2023-04-25T15:48:33;16.52;45.86
64997;SHT31;51545;51.568;6.998;2023-04-25T15:51:00;17.71;43.34